createdAt,value
2023-02-12T00:00:15.619Z,5.68
2023-02-12T00:01:15.631Z,5.65
2023-02-12T00:02:15.597Z,5.82
2023-02-12T00:03:15.640Z,5.68
2023-02-12T00:04:15.632Z,5.71
2023-02-12T00:05:15.541Z,5.76
2023-02-12T00:06:16.096Z,5.84
2023-02-12T00:07:15.582Z,5.80
2023-02-12T00:08:16.540Z,5.80
2023-02-12T00:09:15.541Z,5.86
2023-02-12T00:10:15.521Z,5.79
2023-02-12T00:11:15.514Z,5.75
2023-02-12T00:12:15.640Z,5.66
2023-02-12T00:13:15.485Z,5.66
2023-02-12T00:14:15.679Z,5.59
2023-02-12T00:15:16.110Z,5.56
2023-02-12T00:16:15.563Z,5.59
2023-02-12T00:17:15.851Z,5.59
2023-02-12T00:18:15.447Z,5.66
2023-02-12T00:19:15.502Z,5.76
2023-02-12T00:20:15.423Z,5.72
2023-02-12T00:21:15.379Z,5.83
2023-02-12T00:22:15.521Z,5.76
2023-02-12T00:23:15.374Z,5.79
2023-02-12T00:24:15.470Z,5.93
2023-02-12T00:25:15.346Z,5.89
2023-02-12T00:26:15.374Z,5.91
2023-02-12T00:27:15.382Z,5.98
2023-02-12T00:28:15.397Z,5.99
2023-02-12T00:29:15.394Z,5.94
2023-02-12T00:30:15.403Z,5.98
2023-02-12T00:31:15.417Z,6.01
2023-02-12T00:32:15.316Z,5.93
2023-02-12T00:33:15.329Z,5.94
2023-02-12T00:34:15.964Z,5.97
2023-02-12T00:35:15.279Z,5.97
2023-02-12T00:36:15.321Z,5.97
2023-02-12T00:37:15.402Z,5.86
2023-02-12T00:38:15.345Z,5.89
2023-02-12T00:39:15.264Z,5.98
2023-02-12T00:40:15.208Z,5.90
2023-02-12T00:41:16.008Z,5.87
2023-02-12T00:42:15.186Z,5.87
2023-02-12T00:43:15.184Z,5.89
2023-02-12T00:44:15.156Z,5.89
2023-02-12T00:45:15.227Z,5.83
2023-02-12T00:46:15.203Z,5.86
2023-02-12T00:47:15.167Z,5.79
2023-02-12T00:48:15.199Z,5.76
2023-02-12T00:49:15.200Z,5.72
2023-02-12T00:50:15.162Z,5.75
2023-02-12T00:51:15.105Z,5.68
2023-02-12T00:52:16.112Z,5.57
2023-02-12T00:53:15.081Z,5.61
2023-02-12T00:54:15.138Z,5.65
2023-02-12T00:55:15.086Z,5.62
2023-02-12T00:56:15.039Z,5.61
2023-02-12T00:57:16.417Z,5.76
2023-02-12T00:58:17.864Z,5.73
2023-02-12T00:59:15.000Z,5.76
2023-02-12T01:00:15.031Z,5.73
2023-02-12T01:01:15.072Z,5.75
2023-02-12T01:02:14.987Z,5.83
2023-02-12T01:03:14.957Z,5.80
2023-02-12T01:04:15.036Z,5.84
2023-02-12T01:05:15.107Z,5.79
2023-02-12T01:06:15.137Z,5.82
2023-02-12T01:07:15.035Z,5.87
2023-02-12T01:08:15.001Z,5.79
2023-02-12T01:09:14.964Z,5.75
2023-02-12T01:10:14.957Z,5.80
2023-02-12T01:11:14.897Z,5.86
2023-02-12T01:12:14.873Z,5.72
2023-02-12T01:13:14.993Z,5.66
2023-02-12T01:14:14.881Z,5.72
2023-02-12T01:15:14.962Z,5.59
2023-02-12T01:16:14.933Z,5.61
2023-02-12T01:17:14.926Z,5.56
2023-02-12T01:18:14.880Z,5.66
2023-02-12T01:19:14.841Z,5.68
2023-02-12T01:20:14.951Z,5.65
2023-02-12T01:21:14.834Z,5.76
2023-02-12T01:22:14.812Z,5.76
2023-02-12T01:23:14.754Z,5.84
2023-02-12T01:24:14.780Z,5.83
2023-02-12T01:25:15.547Z,5.90
2023-02-12T01:26:14.770Z,5.82
2023-02-12T01:27:14.842Z,5.86
2023-02-12T01:28:14.777Z,5.89
2023-02-12T01:29:14.749Z,5.94
2023-02-12T01:30:14.756Z,5.91
2023-02-12T01:31:14.796Z,5.89
2023-02-12T01:32:15.642Z,5.84
2023-02-12T01:33:14.700Z,5.97
2023-02-12T01:34:14.686Z,5.94
2023-02-12T01:35:14.715Z,5.89
2023-02-12T01:36:14.790Z,5.97
2023-02-12T01:37:14.663Z,5.93
2023-02-12T01:38:14.664Z,5.93
2023-02-12T01:39:14.679Z,5.90
2023-02-12T01:40:14.675Z,5.90
2023-02-12T01:41:14.678Z,5.93
2023-02-12T01:42:14.663Z,5.86
2023-02-12T01:43:14.682Z,5.91
2023-02-12T01:44:14.596Z,5.90
2023-02-12T01:45:14.620Z,5.97
2023-02-12T01:46:14.599Z,6.02
2023-02-12T01:47:14.579Z,5.86
2023-02-12T01:48:15.512Z,5.94
2023-02-12T01:49:14.592Z,5.93
2023-02-12T01:50:14.536Z,5.98
2023-02-12T01:51:15.502Z,5.97
2023-02-12T01:52:14.531Z,6.01
2023-02-12T01:53:14.543Z,5.93
2023-02-12T01:54:14.538Z,5.93
2023-02-12T01:55:14.594Z,5.91
2023-02-12T01:56:14.454Z,5.93
2023-02-12T01:57:14.481Z,5.91
2023-02-12T01:58:14.424Z,5.91
2023-02-12T01:59:14.408Z,5.83
2023-02-12T02:00:14.400Z,5.84
2023-02-12T02:01:14.424Z,5.86
2023-02-12T02:02:14.396Z,5.71
2023-02-12T02:03:14.449Z,5.72
2023-02-12T02:04:14.417Z,5.64
2023-02-12T02:05:14.371Z,5.69
2023-02-12T02:06:14.328Z,5.59
2023-02-12T02:07:14.329Z,5.54
2023-02-12T02:08:14.323Z,5.57
2023-02-12T02:09:14.349Z,5.65
2023-02-12T02:10:14.319Z,5.57
2023-02-12T02:11:14.387Z,5.65
2023-02-12T02:12:14.362Z,5.53
2023-02-12T02:13:14.282Z,5.61
2023-02-12T02:14:14.287Z,5.61
2023-02-12T02:15:14.302Z,5.66
2023-02-12T02:16:15.061Z,5.56
2023-02-12T02:17:14.344Z,5.62
2023-02-12T02:18:14.304Z,5.61
2023-02-12T02:19:14.241Z,5.72
2023-02-12T02:20:14.494Z,5.73
2023-02-12T02:21:14.217Z,5.79
2023-02-12T02:22:14.225Z,5.89
2023-02-12T02:23:15.001Z,5.76
2023-02-12T02:24:14.166Z,5.80
2023-02-12T02:25:15.184Z,5.80
2023-02-12T02:26:14.166Z,5.80
2023-02-12T02:27:14.305Z,5.80
2023-02-12T02:28:14.190Z,5.75
2023-02-12T02:29:14.120Z,5.90
2023-02-12T02:30:14.105Z,5.84
2023-02-12T02:31:14.209Z,5.87
2023-02-12T02:32:14.114Z,5.90
2023-02-12T02:33:14.124Z,5.84
2023-02-12T02:34:14.851Z,5.87
2023-02-12T02:35:14.088Z,5.89
2023-02-12T02:36:14.044Z,5.89
2023-02-12T02:37:14.054Z,5.93
2023-02-12T02:38:14.041Z,5.86
2023-02-12T02:39:14.924Z,5.90
2023-02-12T02:40:14.067Z,5.86
2023-02-12T02:41:14.027Z,5.99
2023-02-12T02:42:14.014Z,5.98
2023-02-12T02:43:13.971Z,5.86
2023-02-12T02:44:13.995Z,5.90
2023-02-12T02:45:13.994Z,5.87
2023-02-12T02:46:15.000Z,5.97
2023-02-12T02:47:13.964Z,5.93
2023-02-12T02:48:13.961Z,5.94
2023-02-12T02:49:13.931Z,5.87
2023-02-12T02:50:13.937Z,5.94
2023-02-12T02:51:13.908Z,5.97
2023-02-12T02:52:13.889Z,5.93
2023-02-12T02:53:13.948Z,5.93
2023-02-12T02:54:13.883Z,5.99
2023-02-12T02:55:14.842Z,5.91
2023-02-12T02:56:13.854Z,5.87
2023-02-12T02:57:13.827Z,5.99
2023-02-12T02:58:13.857Z,5.90
2023-02-12T02:59:13.834Z,5.89
2023-02-12T03:00:13.826Z,5.86
2023-02-12T03:01:13.865Z,5.89
2023-02-12T03:02:13.894Z,5.97
2023-02-12T03:03:13.886Z,5.90
2023-02-12T03:04:13.825Z,6.01
2023-02-12T03:05:13.805Z,5.90
2023-02-12T03:06:13.767Z,6.01
2023-02-12T03:07:13.778Z,5.99
2023-02-12T03:08:13.745Z,5.91
2023-02-12T03:09:13.737Z,5.97
2023-02-12T03:10:13.754Z,5.98
2023-02-12T03:11:13.725Z,5.97
2023-02-12T03:12:13.741Z,6.02
2023-02-12T03:13:13.686Z,5.94
2023-02-12T03:14:13.716Z,5.89
2023-02-12T03:15:13.674Z,5.97
2023-02-12T03:16:13.718Z,5.97
2023-02-12T03:17:13.672Z,5.94
2023-02-12T03:18:13.781Z,5.91
2023-02-12T03:19:13.618Z,5.98
2023-02-12T03:20:13.606Z,5.93
2023-02-12T03:21:14.522Z,5.91
2023-02-12T03:22:13.625Z,5.87
2023-02-12T03:23:13.627Z,5.87
2023-02-12T03:24:13.583Z,5.84
2023-02-12T03:25:14.345Z,5.87
2023-02-12T03:26:13.594Z,5.91
2023-02-12T03:27:13.539Z,5.87
2023-02-12T03:28:13.608Z,5.87
2023-02-12T03:29:13.548Z,5.98
2023-02-12T03:30:13.662Z,5.90
2023-02-12T03:31:13.642Z,5.90
2023-02-12T03:32:13.557Z,5.90
2023-02-12T03:33:13.510Z,5.90
2023-02-12T03:34:13.490Z,5.93
2023-02-12T03:35:13.454Z,5.98
2023-02-12T03:36:13.465Z,5.91
2023-02-12T03:37:13.526Z,5.82
2023-02-12T03:38:13.437Z,5.89
2023-02-12T03:39:13.421Z,5.98
2023-02-12T03:40:13.477Z,5.84
2023-02-12T03:41:13.426Z,5.91
2023-02-12T03:42:13.374Z,5.84
2023-02-12T03:43:13.400Z,5.89
2023-02-12T03:44:13.388Z,5.98
2023-02-12T03:45:13.370Z,6.01
2023-02-12T03:46:13.582Z,5.97
2023-02-12T03:47:13.355Z,5.93
2023-02-12T03:48:13.365Z,5.94
2023-02-12T03:49:13.314Z,5.91
2023-02-12T03:50:13.312Z,5.90
2023-02-12T03:51:13.333Z,5.93
2023-02-12T03:52:13.322Z,5.83
2023-02-12T03:53:13.406Z,5.94
2023-02-12T03:54:13.261Z,5.86
2023-02-12T03:55:13.338Z,5.80
2023-02-12T03:56:13.284Z,5.56
2023-02-12T03:57:13.259Z,5.51
2023-02-12T03:58:13.247Z,5.43
2023-02-12T03:59:13.196Z,5.51
2023-02-12T04:00:13.255Z,5.41
2023-02-12T04:01:13.283Z,5.38
2023-02-12T04:02:13.193Z,5.39
2023-02-12T04:03:13.155Z,5.39
2023-02-12T04:04:13.190Z,5.30
2023-02-12T04:05:13.962Z,5.38
2023-02-12T04:06:13.144Z,5.35
2023-02-12T04:07:13.216Z,5.30
2023-02-12T04:08:13.120Z,5.33
2023-02-12T04:09:13.128Z,5.18
2023-02-12T04:10:13.079Z,5.29
2023-02-12T04:11:13.125Z,5.29
2023-02-12T04:12:13.118Z,5.28
2023-02-12T04:13:13.050Z,5.36
2023-02-12T04:14:13.129Z,5.29
2023-02-12T04:15:13.053Z,5.29
2023-02-12T04:16:13.191Z,5.30
2023-02-12T04:17:13.031Z,5.43
2023-02-12T04:18:13.070Z,5.53
2023-02-12T04:19:13.067Z,5.50
2023-02-12T04:20:13.013Z,5.51
2023-02-12T04:21:13.041Z,5.56
2023-02-12T04:22:12.980Z,5.57
2023-02-12T04:23:12.997Z,5.61
2023-02-12T04:24:12.980Z,5.62
2023-02-12T04:25:12.930Z,5.66
2023-02-12T04:26:14.004Z,5.59
2023-02-12T04:27:12.952Z,5.71
2023-02-12T04:28:13.503Z,5.51
2023-02-12T04:29:12.956Z,5.64
2023-02-12T04:30:12.921Z,5.56
2023-02-12T04:31:13.046Z,5.53
2023-02-12T04:32:13.061Z,5.51
2023-02-12T04:33:12.879Z,5.64
2023-02-12T04:34:12.889Z,5.53
2023-02-12T04:35:13.501Z,5.56
2023-02-12T04:36:12.863Z,5.47
2023-02-12T04:37:12.850Z,5.41
2023-02-12T04:38:12.803Z,5.38
2023-02-12T04:39:12.863Z,5.61
2023-02-12T04:40:12.801Z,5.50
2023-02-12T04:41:12.817Z,5.66
2023-02-12T04:42:13.454Z,5.59
2023-02-12T04:43:12.824Z,5.53
2023-02-12T04:44:12.802Z,5.71
2023-02-12T04:45:12.785Z,5.56
2023-02-12T04:46:12.855Z,5.57
2023-02-12T04:47:12.757Z,5.66
2023-02-12T04:48:12.704Z,5.59
2023-02-12T04:49:12.735Z,5.64
2023-02-12T04:50:12.705Z,5.68
2023-02-12T04:51:13.519Z,5.62
2023-02-12T04:52:12.697Z,5.54
2023-02-12T04:53:12.690Z,5.57
2023-02-12T04:54:12.681Z,5.68
2023-02-12T04:55:12.685Z,5.64
2023-02-12T04:56:12.753Z,5.62
2023-02-12T04:57:12.708Z,5.54
2023-02-12T04:58:12.737Z,5.66
2023-02-12T04:59:12.684Z,5.57
2023-02-12T05:00:12.639Z,5.59
2023-02-12T05:01:12.685Z,5.75
2023-02-12T05:02:12.642Z,5.59
2023-02-12T05:03:12.606Z,5.66
2023-02-12T05:04:12.672Z,5.57
2023-02-12T05:05:13.462Z,5.53
2023-02-12T05:06:13.610Z,5.57
2023-02-12T05:07:12.668Z,5.64
2023-02-12T05:08:12.500Z,5.54
2023-02-12T05:09:12.582Z,5.65
2023-02-12T05:10:12.523Z,5.62
2023-02-12T05:11:12.574Z,5.65
2023-02-12T05:12:12.535Z,5.68
2023-02-12T05:13:12.479Z,5.73
2023-02-12T05:14:12.623Z,5.61
2023-02-12T05:15:12.461Z,5.57
2023-02-12T05:16:12.531Z,5.65
2023-02-12T05:17:12.443Z,5.68
2023-02-12T05:18:12.466Z,5.69
2023-02-12T05:19:12.451Z,5.73
2023-02-12T05:20:12.421Z,5.56
2023-02-12T05:21:12.501Z,5.66
2023-02-12T05:22:12.425Z,5.54
2023-02-12T05:23:12.364Z,5.51
2023-02-12T05:24:12.404Z,5.48
2023-02-12T05:25:12.396Z,5.53
2023-02-12T05:26:12.462Z,5.48
2023-02-12T05:27:12.342Z,5.41
2023-02-12T05:28:12.379Z,5.39
2023-02-12T05:29:12.331Z,5.50
2023-02-12T05:30:12.366Z,5.48
2023-02-12T05:31:12.403Z,5.61
2023-02-12T05:32:12.318Z,5.56
2023-02-12T05:33:13.289Z,5.56
2023-02-12T05:34:12.259Z,5.35
2023-02-12T05:35:12.268Z,5.36
2023-02-12T05:36:12.296Z,5.28
2023-02-12T05:37:12.920Z,5.43
2023-02-12T05:38:12.210Z,5.41
2023-02-12T05:39:12.223Z,5.39
2023-02-12T05:40:12.991Z,5.41
2023-02-12T05:41:12.162Z,5.47
2023-02-12T05:42:12.245Z,5.32
2023-02-12T05:43:12.157Z,5.38
2023-02-12T05:44:12.205Z,5.23
2023-02-12T05:45:12.158Z,5.26
2023-02-12T05:46:12.232Z,5.20
2023-02-12T05:47:12.149Z,5.28
2023-02-12T05:48:12.124Z,5.33
2023-02-12T05:49:13.002Z,5.36
2023-02-12T05:50:12.128Z,5.41
2023-02-12T05:51:12.113Z,5.46
2023-02-12T05:52:12.128Z,5.41
2023-02-12T05:53:12.092Z,5.39
2023-02-12T05:54:12.052Z,5.32
2023-02-12T05:55:12.049Z,5.36
2023-02-12T05:56:13.016Z,5.32
2023-02-12T05:57:12.071Z,5.25
2023-02-12T05:58:14.542Z,5.30
2023-02-12T05:59:11.997Z,5.39
2023-02-12T06:00:12.016Z,5.46
2023-02-12T06:01:12.026Z,5.41
2023-02-12T06:02:12.098Z,5.47
2023-02-12T06:03:12.022Z,5.43
2023-02-12T06:04:12.060Z,5.43
2023-02-12T06:05:12.841Z,5.41
2023-02-12T06:06:11.949Z,5.46
2023-02-12T06:07:11.963Z,5.33
2023-02-12T06:08:11.920Z,5.41
2023-02-12T06:09:11.935Z,5.48
2023-02-12T06:10:11.910Z,5.51
2023-02-12T06:11:11.904Z,5.50
2023-02-12T06:12:12.814Z,5.50
2023-02-12T06:13:11.906Z,5.44
2023-02-12T06:14:12.821Z,5.33
2023-02-12T06:15:11.854Z,5.46
2023-02-12T06:16:11.916Z,5.43
2023-02-12T06:17:12.401Z,5.46
2023-02-12T06:18:11.817Z,5.50
2023-02-12T06:19:11.840Z,5.56
2023-02-12T06:32:40.721Z,5.18
2023-02-12T06:33:40.703Z,5.11
2023-02-12T06:34:40.701Z,5.17
2023-02-12T06:35:40.746Z,5.17
2023-02-12T06:36:43.419Z,5.21
2023-02-12T06:37:41.860Z,5.21
2023-02-12T06:38:41.826Z,5.25
2023-02-12T06:39:41.825Z,5.35
2023-02-12T06:40:41.812Z,5.32
2023-02-12T06:41:41.806Z,5.30
2023-02-12T06:42:41.826Z,5.41
2023-02-12T06:43:42.441Z,5.48
2023-02-12T06:44:41.783Z,5.47
2023-02-12T06:45:41.764Z,5.56
2023-02-12T06:46:41.881Z,5.62
2023-02-12T06:47:41.799Z,5.62
2023-02-12T06:48:41.729Z,5.51
2023-02-12T06:49:41.728Z,5.54
2023-02-12T06:50:41.718Z,5.54
2023-02-12T06:51:41.703Z,5.54
2023-02-12T06:52:41.782Z,5.62
2023-02-12T06:53:41.690Z,5.59
2023-02-12T06:54:41.718Z,5.54
2023-02-12T06:55:41.664Z,5.62
2023-02-12T06:56:41.667Z,5.65
2023-02-12T06:57:42.466Z,5.65
2023-02-12T06:58:41.655Z,5.66
2023-02-12T06:59:41.640Z,5.69
2023-02-12T07:00:41.617Z,5.65
2023-02-12T07:01:41.652Z,5.72
2023-02-12T07:02:41.609Z,5.76
2023-02-12T07:03:41.666Z,5.79
2023-02-12T07:04:42.528Z,5.69
2023-02-12T07:05:41.575Z,5.66
2023-02-12T07:06:41.559Z,5.62
2023-02-12T07:07:41.552Z,5.66
2023-02-12T07:08:41.562Z,5.65
2023-02-12T07:09:41.544Z,5.73
2023-02-12T07:10:41.550Z,5.71
2023-02-12T07:11:41.614Z,5.73
2023-02-12T07:12:41.504Z,5.73
2023-02-12T07:13:41.535Z,5.76
2023-02-12T07:14:41.476Z,5.61
2023-02-12T07:15:41.501Z,5.54
2023-02-12T07:16:41.505Z,5.47
2023-02-12T07:17:42.404Z,5.44
2023-02-12T07:18:41.489Z,5.43
2023-02-12T07:19:41.430Z,5.44
2023-02-12T07:20:41.447Z,5.29
2023-02-12T07:21:41.433Z,5.38
2023-02-12T07:22:41.472Z,5.30
2023-02-12T07:23:41.378Z,5.35
2023-02-12T07:24:41.366Z,5.48
2023-02-12T07:25:41.386Z,5.43
2023-02-12T07:26:41.359Z,5.35
2023-02-12T07:27:41.517Z,5.47
2023-02-12T07:28:41.371Z,5.43
2023-02-12T07:29:41.331Z,5.50
2023-02-12T07:30:42.662Z,5.48
2023-02-12T07:31:41.333Z,5.53
2023-02-12T07:32:41.478Z,5.57
2023-02-12T07:33:41.287Z,5.64
2023-02-12T07:34:41.284Z,5.57
2023-02-12T07:35:41.286Z,5.66
2023-02-12T07:36:41.369Z,5.69
2023-02-12T07:37:41.312Z,5.69
2023-02-12T07:38:41.274Z,5.76
2023-02-12T07:39:41.221Z,5.83
2023-02-12T07:40:41.231Z,5.80
2023-02-12T07:41:41.205Z,5.87
2023-02-12T07:42:41.231Z,5.84
2023-02-12T07:43:41.918Z,5.83
2023-02-12T07:44:41.193Z,5.89
2023-02-12T07:45:41.181Z,5.99
2023-02-12T07:46:41.153Z,5.87
2023-02-12T07:47:41.846Z,5.93
2023-02-12T07:48:41.212Z,5.94
2023-02-12T07:49:41.109Z,5.83
2023-02-12T07:50:41.104Z,5.90
2023-02-12T07:51:41.159Z,5.99
2023-02-12T07:52:41.160Z,5.94
2023-02-12T07:53:41.123Z,6.01
2023-02-12T07:54:41.145Z,6.05
2023-02-12T07:55:41.142Z,6.08
2023-02-12T07:56:41.064Z,6.07
2023-02-12T07:57:41.099Z,6.08
2023-02-12T07:58:41.136Z,6.19
2023-02-12T07:59:41.052Z,6.24
2023-02-12T08:00:41.073Z,6.11
2023-02-12T08:01:41.058Z,6.19
2023-02-12T08:02:41.044Z,6.22
2023-02-12T08:03:40.998Z,6.19
2023-02-12T08:04:41.008Z,6.24
2023-02-12T08:05:40.968Z,6.16
2023-02-12T08:06:41.182Z,6.24
2023-02-12T08:07:41.066Z,6.24
2023-02-12T08:08:40.964Z,6.19
2023-02-12T08:09:40.903Z,6.36
2023-02-12T08:10:40.905Z,6.19
2023-02-12T08:11:41.915Z,6.33
2023-02-12T08:12:40.867Z,6.41
2023-02-12T08:13:40.942Z,6.41
2023-02-12T08:14:40.923Z,6.36
2023-02-12T08:15:40.871Z,6.41
2023-02-12T08:16:40.982Z,6.41
2023-02-12T08:17:40.904Z,6.46
2023-02-12T08:18:40.905Z,6.45
2023-02-12T08:19:40.828Z,6.48
2023-02-12T08:20:40.803Z,6.52
2023-02-12T08:21:40.847Z,6.57
2023-02-12T08:22:40.776Z,6.59
2023-02-12T08:23:40.851Z,6.59
2023-02-12T08:24:40.792Z,6.64
2023-02-12T08:25:40.815Z,6.63
2023-02-12T08:26:40.754Z,6.54
2023-02-12T08:27:40.825Z,6.66
2023-02-12T08:28:40.774Z,6.81
2023-02-12T08:29:40.691Z,6.74
2023-02-12T08:30:40.752Z,6.77
2023-02-12T08:31:40.738Z,6.74
2023-02-12T08:32:40.713Z,6.79
2023-02-12T08:33:40.745Z,6.79
2023-02-12T08:34:40.726Z,6.72
2023-02-12T08:35:40.676Z,6.69
2023-02-12T08:36:40.656Z,6.82
2023-02-12T08:37:40.694Z,6.77
2023-02-12T08:38:40.656Z,6.87
2023-02-12T08:39:42.447Z,6.92
2023-02-12T08:40:40.676Z,6.95
2023-02-12T08:41:41.605Z,6.95
2023-02-12T08:42:40.583Z,7.00
2023-02-12T08:43:40.609Z,7.00
2023-02-12T08:44:41.435Z,6.85
2023-02-12T08:45:40.574Z,6.89
2023-02-12T08:46:41.311Z,6.97
2023-02-12T08:47:40.539Z,6.88
2023-02-12T08:48:40.604Z,6.84
2023-02-12T08:49:40.540Z,6.79
2023-02-12T08:50:40.521Z,6.81
2023-02-12T08:51:40.522Z,6.77
2023-02-12T08:52:42.980Z,6.84
2023-02-12T08:53:40.519Z,6.93
2023-02-12T08:54:40.470Z,6.89
2023-02-12T08:55:40.494Z,6.97
2023-02-12T08:56:40.432Z,6.96
2023-02-12T08:57:41.309Z,6.88
2023-02-12T08:58:40.469Z,6.93
2023-02-12T08:59:40.438Z,6.89
2023-02-12T09:00:40.571Z,6.89
2023-02-12T09:01:41.433Z,6.97
2023-02-12T09:02:40.475Z,7.05
2023-02-12T09:03:40.393Z,7.05
2023-02-12T09:04:40.430Z,7.03
2023-02-12T09:05:40.389Z,7.02
2023-02-12T09:06:40.339Z,7.06
2023-02-12T09:07:40.291Z,7.15
2023-02-12T09:08:40.334Z,7.15
2023-02-12T09:09:41.324Z,7.15
2023-02-12T09:10:40.294Z,7.24
2023-02-12T09:11:40.375Z,7.33
2023-02-12T09:12:40.329Z,7.31
2023-02-12T09:13:40.414Z,7.25
2023-02-12T09:14:40.293Z,7.28
2023-02-12T09:15:40.235Z,7.35
2023-02-12T09:16:40.409Z,7.43
2023-02-12T09:17:40.218Z,7.33
2023-02-12T09:18:40.548Z,7.23
2023-02-12T09:19:40.201Z,7.31
2023-02-12T09:20:40.200Z,7.42
2023-02-12T09:21:40.228Z,7.42
2023-02-12T09:22:40.172Z,7.48
2023-02-12T09:23:40.941Z,7.57
2023-02-12T09:24:40.260Z,7.47
2023-02-12T09:25:40.153Z,7.58
2023-02-12T09:26:40.168Z,7.63
2023-02-12T09:27:40.174Z,7.69
2023-02-12T09:28:40.175Z,7.63
2023-02-12T09:29:40.136Z,7.69
2023-02-12T09:30:40.138Z,7.75
2023-02-12T09:31:40.239Z,7.70
2023-02-12T09:32:40.299Z,7.79
2023-02-12T09:33:40.096Z,7.73
2023-02-12T09:34:40.126Z,7.61
2023-02-12T09:35:40.077Z,7.70
2023-02-12T09:36:40.097Z,7.60
2023-02-12T09:37:40.042Z,7.76
2023-02-12T09:38:40.093Z,7.80
2023-02-12T09:39:40.040Z,7.83
2023-02-12T09:40:40.025Z,7.80
2023-02-12T09:41:40.028Z,7.91
2023-02-12T09:42:40.019Z,7.88
2023-02-12T09:43:40.012Z,7.91
2023-02-12T09:44:39.949Z,7.91
2023-02-12T09:45:39.957Z,8.03
2023-02-12T09:46:45.550Z,7.97
2023-02-12T09:47:39.958Z,8.06
2023-02-12T09:48:40.156Z,7.91
2023-02-12T09:49:39.911Z,8.03
2023-02-12T09:50:40.809Z,8.06
2023-02-12T09:51:39.905Z,8.10
2023-02-12T09:52:39.908Z,8.12
2023-02-12T09:53:40.035Z,8.16
2023-02-12T09:54:39.854Z,8.20
2023-02-12T09:55:39.936Z,8.13
2023-02-12T09:56:39.899Z,8.28
2023-02-12T09:57:39.944Z,8.27
2023-02-12T09:58:39.915Z,8.28
2023-02-12T09:59:39.875Z,8.24
2023-02-12T10:00:39.893Z,8.20
2023-02-12T10:01:40.612Z,8.42
2023-02-12T10:02:40.513Z,8.41
2023-02-12T10:03:39.899Z,8.44
2023-02-12T10:04:51.592Z,8.38
2023-02-12T10:05:41.803Z,8.46
2023-02-12T10:06:39.858Z,8.42
2023-02-12T10:07:39.759Z,8.42
2023-02-12T10:08:39.811Z,8.49
2023-02-12T10:09:39.766Z,8.38
2023-02-12T10:10:39.740Z,8.42
2023-02-12T10:11:39.738Z,8.41
2023-02-12T10:12:39.686Z,8.30
2023-02-12T10:13:40.521Z,8.19
2023-02-12T10:14:39.740Z,8.24
2023-02-12T10:15:39.720Z,8.24
2023-02-12T10:16:39.666Z,8.42
2023-02-12T10:17:39.719Z,8.44
2023-02-12T10:18:39.719Z,8.38
2023-02-12T10:19:39.649Z,8.42
2023-02-12T10:20:41.382Z,8.41
2023-02-12T10:21:40.631Z,8.55
2023-02-12T10:22:48.224Z,8.53
2023-02-12T10:23:41.630Z,8.55
2023-02-12T10:24:39.612Z,8.61
2023-02-12T10:25:39.553Z,8.58
2023-02-12T10:26:39.560Z,8.55
2023-02-12T10:27:39.595Z,8.66
2023-02-12T10:28:39.637Z,8.64
2023-02-12T10:29:39.549Z,8.64
2023-02-12T10:30:39.570Z,8.63
2023-02-12T10:31:39.636Z,8.67
2023-02-12T10:32:39.549Z,8.71
2023-02-12T10:33:40.528Z,8.73
2023-02-12T10:34:39.526Z,8.76
2023-02-12T10:35:39.434Z,8.85
2023-02-12T10:36:39.448Z,8.76
2023-02-12T10:37:39.429Z,8.78
2023-02-12T10:38:39.481Z,8.66
2023-02-12T10:39:39.467Z,8.56
2023-02-12T10:40:39.432Z,8.55
2023-02-12T10:41:40.012Z,8.51
2023-02-12T10:42:39.454Z,8.52
2023-02-12T10:43:39.364Z,8.49
2023-02-12T10:44:39.375Z,8.55
2023-02-12T10:45:39.359Z,8.52
2023-02-12T10:46:39.409Z,8.55
2023-02-12T10:47:39.375Z,8.46
2023-02-12T10:48:39.374Z,8.52
2023-02-12T10:49:39.326Z,8.49
2023-02-12T10:50:39.297Z,8.41
2023-02-12T10:51:39.395Z,8.36
2023-02-12T10:52:39.340Z,8.30
2023-02-12T10:53:39.276Z,8.20
2023-02-12T10:54:39.295Z,8.27
2023-02-12T10:55:39.932Z,8.38
2023-02-12T10:56:39.260Z,8.41
2023-02-12T10:57:39.783Z,8.38
2023-02-12T10:58:39.238Z,8.30
2023-02-12T10:59:39.247Z,8.37
2023-02-12T11:00:39.228Z,8.38
2023-02-12T11:01:39.243Z,8.48
2023-02-12T11:02:39.213Z,8.44
2023-02-12T11:03:39.161Z,8.53
2023-02-12T11:04:39.873Z,8.46
2023-02-12T11:05:39.133Z,8.51
2023-02-12T11:06:39.169Z,8.42
2023-02-12T11:07:39.158Z,8.52
2023-02-12T11:08:39.134Z,8.38
2023-02-12T11:09:39.150Z,8.52
2023-02-12T11:10:39.104Z,8.42
2023-02-12T11:11:39.880Z,8.61
2023-02-12T11:12:39.108Z,8.48
2023-02-12T11:13:39.109Z,8.55
2023-02-12T11:14:39.094Z,8.45
2023-02-12T11:15:39.092Z,8.42
2023-02-12T11:16:39.074Z,8.36
2023-02-12T11:17:39.026Z,8.51
2023-02-12T11:18:39.022Z,8.56
2023-02-12T11:19:39.001Z,8.46
2023-02-12T11:20:39.034Z,8.42
2023-02-12T11:21:38.993Z,8.46
2023-02-12T11:22:39.031Z,8.44
2023-02-12T11:23:38.969Z,8.48
2023-02-12T11:24:38.989Z,8.46
2023-02-12T11:25:38.940Z,8.52
2023-02-12T11:26:38.959Z,8.48
2023-02-12T11:27:39.000Z,8.33
2023-02-12T11:28:39.000Z,8.46
2023-02-12T11:29:39.092Z,8.27
2023-02-12T11:30:38.984Z,8.34
2023-02-12T11:31:38.983Z,8.51
2023-02-12T11:32:38.907Z,8.48
2023-02-12T11:33:38.892Z,8.42
2023-02-12T11:34:38.902Z,8.33
2023-02-12T11:35:38.887Z,8.48
2023-02-12T11:36:38.865Z,8.45
2023-02-12T11:37:38.856Z,8.55
2023-02-12T11:38:38.848Z,8.49
2023-02-12T11:39:38.924Z,8.48
2023-02-12T11:40:38.837Z,8.53
2023-02-12T11:41:38.811Z,8.51
2023-02-12T11:42:38.782Z,8.61
2023-02-12T11:43:38.827Z,8.63
2023-02-12T11:44:38.768Z,8.63
2023-02-12T11:45:38.778Z,8.58
2023-02-12T11:46:38.779Z,8.56
2023-02-12T11:47:38.749Z,8.52
2023-02-12T11:48:38.752Z,8.46
2023-02-12T11:49:39.858Z,8.55
2023-02-12T11:50:38.737Z,8.51
2023-02-12T11:51:38.681Z,8.58
2023-02-12T11:52:38.718Z,8.55
2023-02-12T11:53:38.711Z,8.51
2023-02-12T11:54:38.694Z,8.45
2023-02-12T11:55:38.657Z,8.37
2023-02-12T11:56:38.685Z,8.46
2023-02-12T11:57:38.660Z,8.48
2023-02-12T11:58:38.641Z,8.46
2023-02-12T11:59:39.390Z,8.48
2023-02-12T12:00:38.632Z,8.49
2023-02-12T12:01:38.643Z,8.60
2023-02-12T12:02:38.603Z,8.56
2023-02-12T12:03:38.614Z,8.60
2023-02-12T12:04:38.622Z,8.60
2023-02-12T12:05:38.567Z,8.69
2023-02-12T12:06:38.684Z,8.71
2023-02-12T12:07:39.483Z,8.82
2023-02-12T12:08:38.602Z,8.70
2023-02-12T12:09:38.732Z,8.66
2023-02-12T12:10:38.520Z,8.76
2023-02-12T12:11:38.499Z,8.76
2023-02-12T12:12:38.544Z,8.74
2023-02-12T12:13:38.585Z,8.78
2023-02-12T12:14:38.537Z,8.69
2023-02-12T12:15:38.480Z,8.82
2023-02-12T12:16:38.528Z,8.87
2023-02-12T12:17:39.311Z,8.84
2023-02-12T12:18:38.452Z,8.81
2023-02-12T12:19:38.457Z,8.82
2023-02-12T12:20:38.410Z,8.87
2023-02-12T12:21:38.435Z,8.88
2023-02-12T12:22:38.403Z,8.97
2023-02-12T12:23:38.378Z,8.92
2023-02-12T12:24:38.453Z,9.04
2023-02-12T12:25:38.382Z,8.94
2023-02-12T12:26:38.436Z,9.00
2023-02-12T12:27:38.397Z,9.02
2023-02-12T12:28:38.427Z,8.99
2023-02-12T12:29:38.373Z,8.99
2023-02-12T12:30:38.386Z,8.94
2023-02-12T12:31:38.421Z,8.95
2023-02-12T12:32:38.275Z,8.94
2023-02-12T12:33:38.436Z,8.88
2023-02-12T12:34:38.321Z,8.89
2023-02-12T12:35:38.298Z,8.85
2023-02-12T12:36:38.366Z,8.94
2023-02-12T12:37:38.254Z,8.99
2023-02-12T12:38:39.083Z,8.97
2023-02-12T12:39:38.286Z,8.91
2023-02-12T12:40:38.360Z,8.82
2023-02-12T12:41:38.217Z,8.78
2023-02-12T12:42:38.234Z,8.81
2023-02-12T12:43:38.195Z,8.74
2023-02-12T12:44:38.207Z,8.63
2023-02-12T12:45:39.204Z,8.63
2023-02-12T12:46:38.214Z,8.79
2023-02-12T12:47:38.232Z,8.85
2023-02-12T12:48:38.148Z,8.84
2023-02-12T12:49:38.204Z,8.91
2023-02-12T12:50:38.164Z,8.95
2023-02-12T12:51:38.163Z,8.97
2023-02-12T12:52:38.133Z,9.00
2023-02-12T12:53:38.126Z,9.11
2023-02-12T12:54:38.153Z,9.18
2023-02-12T12:55:38.069Z,9.18
2023-02-12T12:56:38.088Z,9.14
2023-02-12T12:57:38.103Z,9.10
2023-02-12T12:58:38.074Z,9.13
2023-02-12T12:59:38.106Z,9.19
2023-02-12T13:00:38.063Z,9.21
2023-02-12T13:01:38.026Z,9.19
2023-02-12T13:02:38.027Z,9.26
2023-02-12T13:03:38.023Z,9.21
2023-02-12T13:04:38.389Z,9.28
2023-02-12T13:05:37.972Z,9.31
2023-02-12T13:06:38.017Z,9.28
2023-02-12T13:07:37.968Z,9.43
2023-02-12T13:08:38.007Z,9.31
2023-02-12T13:09:38.019Z,9.36
2023-02-12T13:10:37.928Z,9.29
2023-02-12T13:11:37.901Z,9.29
2023-02-12T13:12:38.020Z,9.29
2023-02-12T13:13:37.945Z,9.25
2023-02-12T13:14:37.902Z,9.26
2023-02-12T13:15:37.943Z,9.31
2023-02-12T13:16:37.994Z,9.28
2023-02-12T13:17:37.858Z,9.31
2023-02-12T13:18:37.929Z,9.29
2023-02-12T13:19:37.976Z,9.31
2023-02-12T13:20:37.814Z,9.36
2023-02-12T13:21:37.869Z,9.26
2023-02-12T13:22:38.866Z,9.40
2023-02-12T13:23:38.041Z,9.16
2023-02-12T13:24:38.183Z,9.28
2023-02-12T13:25:38.894Z,9.31
2023-02-12T13:26:37.808Z,9.19
2023-02-12T13:27:37.802Z,9.32
2023-02-12T13:28:37.888Z,9.43
2023-02-12T13:29:37.750Z,9.39
2023-02-12T13:30:37.793Z,9.44